Terminal Aerodrome Forecast
Issued by NWS Charleston, WV

Current Version | Previous Version | Graphics & Text | Print | Product List | Glossary On
Versions: 1 2 3 4 5 6 7 8 9 10 11 12 13 14 15 16 17 18 19 20 21 22 23 24 25 26 27 28 29 30
155
FTUS41 KRLX 151105 AAC
TAFCRW
TAF AMD
KCRW 151105Z 1511/1606 00000KT 2SM BR BKN001 BKN009 OVC015
     FM151300 27003KT P6SM BKN015
     FM152000 29004KT P6SM SCT040
     FM160400 00000KT 4SM BR FEW001=

USA.gov is the U.S. government's official web portal to all federal, state and local government web resources and services.